createdAt,value
2023-03-20T00:01:56.690Z,94.53
2023-03-20T00:03:58.286Z,94.08
2023-03-20T00:05:59.816Z,94.58
2023-03-20T00:08:01.920Z,93.83
2023-03-20T00:10:03.553Z,94.25
2023-03-20T00:12:05.678Z,94.10
2023-03-20T00:14:10.229Z,94.51
2023-03-20T00:16:12.328Z,94.37
2023-03-20T00:18:19.950Z,94.15
2023-03-20T00:20:22.276Z,93.65
2023-03-20T00:22:23.831Z,93.74
2023-03-20T00:24:25.762Z,93.21
2023-03-20T00:26:33.328Z,93.32
2023-03-20T00:28:40.831Z,93.20
2023-03-20T00:30:42.329Z,93.71
2023-03-20T00:32:43.900Z,93.09
2023-03-20T00:34:45.785Z,93.87
2023-03-20T00:36:47.605Z,93.01
2023-03-20T00:38:49.588Z,93.71
2023-03-20T00:40:51.288Z,94.32
2023-03-20T00:42:59.209Z,94.05
2023-03-20T00:45:02.402Z,94.17
2023-03-20T00:47:18.914Z,93.68
2023-03-20T00:49:27.953Z,94.18
2023-03-20T00:51:29.729Z,94.35
2023-03-20T00:53:31.208Z,94.49
2023-03-20T00:55:33.031Z,94.72
2023-03-20T00:57:40.770Z,94.84
2023-03-20T00:59:52.593Z,94.48
2023-03-20T01:01:54.132Z,94.54
2023-03-20T01:03:55.609Z,94.48
2023-03-20T01:05:57.546Z,94.69
2023-03-20T01:07:59.377Z,94.81
2023-03-20T01:10:01.191Z,93.79
2023-03-20T01:12:03.691Z,93.75
2023-03-20T01:14:13.470Z,93.30
2023-03-20T01:16:26.214Z,92.40
2023-03-20T01:18:28.003Z,91.75
2023-03-20T01:20:30.931Z,91.85
2023-03-20T01:22:32.386Z,91.50
2023-03-20T01:24:33.885Z,90.85
2023-03-20T01:26:44.644Z,90.87
2023-03-20T01:28:46.068Z,91.03
2023-03-20T01:30:48.539Z,91.21
2023-03-20T01:32:50.914Z,91.15
2023-03-20T01:34:53.250Z,90.90
2023-03-20T01:36:57.565Z,90.54
2023-03-20T01:38:59.397Z,90.49
2023-03-20T01:41:12.072Z,89.81
2023-03-20T01:43:17.100Z,89.65
2023-03-20T01:45:21.819Z,89.51
2023-03-20T01:47:24.876Z,89.31
2023-03-20T01:49:26.493Z,90.19
2023-03-20T01:51:36.173Z,90.31
2023-03-20T01:53:37.759Z,90.84
2023-03-20T01:55:42.086Z,90.57
2023-03-20T01:57:44.145Z,91.46
2023-03-20T01:59:45.643Z,90.84
2023-03-20T02:01:47.373Z,92.18
2023-03-20T02:03:50.537Z,91.88
2023-03-20T02:05:52.229Z,92.47
2023-03-20T02:08:18.587Z,93.26
2023-03-20T02:10:20.655Z,93.26
2023-03-20T02:12:22.682Z,93.32
2023-03-20T02:14:24.293Z,93.19
2023-03-20T02:16:26.561Z,93.30
2023-03-20T02:18:28.726Z,93.47
2023-03-20T02:20:56.939Z,93.07
2023-03-20T02:23:36.262Z,93.48
2023-03-20T02:26:02.585Z,93.64
2023-03-20T02:28:16.301Z,93.77
2023-03-20T02:30:36.979Z,94.18
2023-03-20T02:33:29.962Z,93.73
2023-03-20T02:36:04.901Z,93.64
2023-03-20T02:38:26.653Z,93.28
2023-03-20T02:40:34.500Z,93.72
2023-03-20T02:42:56.361Z,92.52
2023-03-20T02:45:43.044Z,92.45
2023-03-20T02:47:54.365Z,91.50
2023-03-20T02:50:13.826Z,91.17
2023-03-20T02:52:30.348Z,91.21
2023-03-20T02:54:56.246Z,90.92
2023-03-20T02:57:29.941Z,91.26
2023-03-20T02:59:40.732Z,90.87
2023-03-20T03:01:48.736Z,90.65
2023-03-20T03:04:02.149Z,89.45
2023-03-20T03:06:12.613Z,88.98
2023-03-20T03:08:19.612Z,89.13
2023-03-20T03:10:27.277Z,88.65
2023-03-20T03:12:33.141Z,88.95
2023-03-20T03:14:46.182Z,88.34
2023-03-20T03:16:50.941Z,88.26
2023-03-20T03:19:01.677Z,88.74
2023-03-20T03:21:05.700Z,88.71
2023-03-20T03:23:07.435Z,88.64
2023-03-20T03:25:12.370Z,88.07
2023-03-20T03:27:22.923Z,88.08
2023-03-20T03:29:28.012Z,88.32
2023-03-20T03:31:31.813Z,88.96
2023-03-20T03:33:37.138Z,88.43
2023-03-20T03:35:40.204Z,88.22
2023-03-20T03:37:47.549Z,88.40
2023-03-20T03:40:05.405Z,89.05
2023-03-20T03:42:19.177Z,89.11
2023-03-20T03:44:28.226Z,88.91
2023-03-20T03:46:57.317Z,88.87
2023-03-20T03:48:59.757Z,88.81
2023-03-20T03:51:07.070Z,88.94
2023-03-20T03:53:12.561Z,89.67
2023-03-20T03:55:21.431Z,89.78
2023-03-20T03:57:30.709Z,89.98
2023-03-20T03:59:43.424Z,89.72
2023-03-20T04:01:47.657Z,90.53
2023-03-20T04:03:52.428Z,90.34
2023-03-20T04:05:56.950Z,91.04
2023-03-20T04:08:01.173Z,91.27
2023-03-20T04:10:03.478Z,91.89
2023-03-20T04:12:05.373Z,91.56
2023-03-20T04:14:06.930Z,92.42
2023-03-20T04:16:14.269Z,91.53
2023-03-20T04:18:18.054Z,91.58
2023-03-20T04:20:20.235Z,92.02
2023-03-20T04:22:21.798Z,92.60
2023-03-20T04:24:23.418Z,92.30
2023-03-20T04:26:24.890Z,92.49
2023-03-20T04:28:26.455Z,92.56
2023-03-20T04:30:27.914Z,92.66
2023-03-20T04:32:29.358Z,92.38
2023-03-20T04:34:30.808Z,92.52
2023-03-20T04:36:32.266Z,92.65
2023-03-20T04:38:33.781Z,92.98
2023-03-20T04:40:35.505Z,92.77
2023-03-20T04:42:36.972Z,93.02
2023-03-20T04:44:38.428Z,92.67
2023-03-20T04:46:39.880Z,92.93
2023-03-20T04:48:41.323Z,92.67
2023-03-20T04:50:42.870Z,93.08
2023-03-20T04:52:44.335Z,93.29
2023-03-20T04:54:45.918Z,93.68
2023-03-20T04:56:47.515Z,93.35
2023-03-20T04:58:49.004Z,94.12
2023-03-20T05:00:50.751Z,93.96
2023-03-20T05:02:52.230Z,94.00
2023-03-20T05:04:53.719Z,94.09
2023-03-20T05:06:55.607Z,94.77
2023-03-20T05:09:05.234Z,94.59
2023-03-20T05:11:08.228Z,94.36
2023-03-20T05:13:09.691Z,94.19
2023-03-20T05:15:17.019Z,94.64
2023-03-20T05:17:21.626Z,95.23
2023-03-20T05:19:23.128Z,94.50
2023-03-20T05:21:24.867Z,94.96
2023-03-20T05:23:26.330Z,94.85
2023-03-20T05:25:27.826Z,95.39
2023-03-20T05:27:29.328Z,94.63
2023-03-20T05:29:31.033Z,94.67
2023-03-20T05:31:32.821Z,94.58
2023-03-20T05:33:36.812Z,95.00
2023-03-20T05:35:39.816Z,94.54
2023-03-20T05:37:41.468Z,94.19
2023-03-20T05:39:43.069Z,94.45
2023-03-20T05:41:45.896Z,94.81
2023-03-20T05:43:47.474Z,94.72
2023-03-20T05:45:48.994Z,95.17
2023-03-20T05:47:50.596Z,94.61
2023-03-20T05:49:52.128Z,93.96
2023-03-20T05:51:53.614Z,94.59
2023-03-20T05:53:55.182Z,94.56
2023-03-20T05:55:56.846Z,94.10
2023-03-20T05:57:58.376Z,93.88
2023-03-20T05:59:59.828Z,94.39
2023-03-20T06:02:01.280Z,93.70
2023-03-20T06:04:03.202Z,93.91
2023-03-20T06:06:05.234Z,93.25
2023-03-20T06:08:07.040Z,93.61
2023-03-20T06:10:09.301Z,93.28
2023-03-20T06:12:11.093Z,93.29
2023-03-20T06:14:12.571Z,92.75
2023-03-20T06:16:14.110Z,92.56
2023-03-20T06:18:15.639Z,92.33
2023-03-20T06:20:17.792Z,92.25
2023-03-20T06:22:19.325Z,91.34
2023-03-20T06:24:20.890Z,91.01
2023-03-20T06:26:22.367Z,90.78
2023-03-20T06:28:23.828Z,90.61
2023-03-20T06:30:25.259Z,90.42
2023-03-20T06:32:27.529Z,89.53
2023-03-20T06:34:30.200Z,88.79
2023-03-20T06:36:32.222Z,88.70
2023-03-20T06:38:33.768Z,88.97
2023-03-20T06:40:36.174Z,89.02
2023-03-20T06:42:37.631Z,88.58
2023-03-20T06:44:39.817Z,88.32
2023-03-20T06:46:41.393Z,88.25
2023-03-20T06:48:42.938Z,88.59
2023-03-20T06:50:46.165Z,87.98
2023-03-20T06:52:48.425Z,87.90
2023-03-20T06:54:51.268Z,87.35
2023-03-20T06:56:52.900Z,87.29
2023-03-20T06:58:54.341Z,87.92
2023-03-20T07:00:55.797Z,87.50
2023-03-20T07:02:57.291Z,86.72
2023-03-20T07:04:58.899Z,86.68
2023-03-20T07:07:00.594Z,86.58
2023-03-20T07:09:02.223Z,86.24
2023-03-20T07:11:04.455Z,86.93
2023-03-20T07:13:06.177Z,86.20
2023-03-20T07:15:07.847Z,86.28
2023-03-20T07:17:10.485Z,85.47
2023-03-20T07:19:13.471Z,85.20
2023-03-20T07:21:21.455Z,84.51
2023-03-20T07:23:22.940Z,83.79
2023-03-20T07:25:39.325Z,84.93
2023-03-20T07:27:50.209Z,83.96
2023-03-20T07:29:52.305Z,84.30
2023-03-20T07:31:53.827Z,83.73
2023-03-20T07:33:55.789Z,83.66
2023-03-20T07:35:57.565Z,83.42
2023-03-20T07:37:59.214Z,82.82
2023-03-20T07:40:01.075Z,82.51
2023-03-20T07:42:02.547Z,83.42
2023-03-20T07:44:04.052Z,82.17
2023-03-20T07:46:07.819Z,83.21
2023-03-20T07:48:09.357Z,83.46
2023-03-20T07:50:11.345Z,82.26
2023-03-20T07:52:12.788Z,82.66
2023-03-20T07:54:15.226Z,82.14
2023-03-20T07:56:16.671Z,82.50
2023-03-20T07:58:18.158Z,82.66
2023-03-20T08:00:20.124Z,81.77
2023-03-20T08:02:21.741Z,82.40
2023-03-20T08:04:23.389Z,81.76
2023-03-20T08:06:25.039Z,82.04
2023-03-20T08:08:26.617Z,81.74
2023-03-20T08:10:28.385Z,81.54
2023-03-20T08:12:29.971Z,81.35
2023-03-20T08:14:31.562Z,81.53
2023-03-20T08:16:33.179Z,81.01
2023-03-20T08:18:34.792Z,81.04
2023-03-20T08:20:36.342Z,80.03
2023-03-20T08:22:37.895Z,79.78
2023-03-20T08:24:39.376Z,79.68
2023-03-20T08:26:41.024Z,79.77
2023-03-20T08:28:47.809Z,78.97
2023-03-20T08:30:49.942Z,78.61
2023-03-20T08:32:51.513Z,78.63
2023-03-20T08:34:55.062Z,78.90
2023-03-20T08:36:56.525Z,78.35
2023-03-20T08:38:57.985Z,78.33
2023-03-20T08:40:59.603Z,78.19
2023-03-20T08:43:01.119Z,77.53
2023-03-20T08:45:02.715Z,78.05
2023-03-20T08:47:05.473Z,77.87
2023-03-20T08:49:07.278Z,78.06
2023-03-20T08:51:09.157Z,77.00
2023-03-20T08:53:11.322Z,76.40
2023-03-20T08:55:14.843Z,76.58
2023-03-20T08:57:16.329Z,75.35
2023-03-20T08:59:19.276Z,75.82
2023-03-20T09:01:20.917Z,75.63
2023-03-20T09:03:22.506Z,76.18
2023-03-20T09:05:24.067Z,76.09
2023-03-20T09:07:25.568Z,75.70
2023-03-20T09:09:29.432Z,74.68
2023-03-20T09:11:32.190Z,75.13
2023-03-20T09:13:33.879Z,74.17
2023-03-20T09:15:36.139Z,74.52
2023-03-20T09:17:37.786Z,74.02
2023-03-20T09:19:42.529Z,73.62
2023-03-20T09:21:44.037Z,74.46
2023-03-20T09:23:45.699Z,73.29
2023-03-20T09:25:47.608Z,73.16
2023-03-20T09:27:55.379Z,73.52
2023-03-20T09:29:56.857Z,72.54
2023-03-20T09:31:58.424Z,72.28
2023-03-20T09:34:00.134Z,72.38
2023-03-20T09:36:01.967Z,72.55
2023-03-20T09:38:03.750Z,72.35
2023-03-20T09:40:05.805Z,70.84
2023-03-20T09:42:26.054Z,71.06
2023-03-20T09:44:49.065Z,71.65
2023-03-20T09:47:18.338Z,71.85
2023-03-20T09:49:39.225Z,70.70
2023-03-20T09:52:03.145Z,71.50
2023-03-20T09:54:12.008Z,71.01
2023-03-20T09:56:22.329Z,71.50
2023-03-20T09:58:23.743Z,70.98
2023-03-20T10:00:28.655Z,70.29
2023-03-20T10:02:40.794Z,69.68
2023-03-20T10:04:44.072Z,69.23
2023-03-20T10:06:46.685Z,69.46
2023-03-20T10:08:48.400Z,69.95
2023-03-20T10:11:00.663Z,69.23
2023-03-20T10:13:35.476Z,68.84
2023-03-20T10:16:06.237Z,70.86
2023-03-20T10:18:13.893Z,70.04
2023-03-20T10:20:35.628Z,69.88
2023-03-20T10:22:48.040Z,69.92
2023-03-20T10:25:01.999Z,68.83
2023-03-20T10:27:18.008Z,68.78
2023-03-20T10:29:40.949Z,68.95
2023-03-20T10:32:15.618Z,68.39
2023-03-20T10:34:26.231Z,67.97
2023-03-20T10:36:52.565Z,68.10
2023-03-20T10:39:00.694Z,67.92
2023-03-20T10:41:04.408Z,67.71
2023-03-20T10:43:43.481Z,66.94
2023-03-20T10:46:02.877Z,67.86
2023-03-20T10:48:13.989Z,66.73
2023-03-20T10:50:18.881Z,66.76
2023-03-20T10:52:29.071Z,67.58
2023-03-20T10:54:35.364Z,66.76
2023-03-20T10:56:43.347Z,66.69
2023-03-20T10:58:49.313Z,66.51
2023-03-20T11:00:51.092Z,66.80
2023-03-20T11:02:53.154Z,66.21
2023-03-20T11:04:54.623Z,66.08
2023-03-20T11:07:03.693Z,65.24
2023-03-20T11:09:19.123Z,65.82
2023-03-20T11:11:26.652Z,65.09
2023-03-20T11:13:41.596Z,64.22
2023-03-20T11:15:43.586Z,63.60
2023-03-20T11:17:55.604Z,63.19
2023-03-20T11:20:05.237Z,62.24
2023-03-20T11:22:24.407Z,63.49
2023-03-20T11:24:46.094Z,61.12
2023-03-20T11:26:47.693Z,61.23
2023-03-20T11:28:52.837Z,61.61
2023-03-20T11:31:04.492Z,61.04
2023-03-20T11:33:08.605Z,61.10
2023-03-20T11:35:18.263Z,61.69
2023-03-20T11:37:46.728Z,61.34
2023-03-20T11:39:59.409Z,61.37
2023-03-20T11:42:02.174Z,61.55
2023-03-20T11:44:03.638Z,60.84
2023-03-20T11:46:13.378Z,61.41
2023-03-20T11:48:19.288Z,61.45
2023-03-20T11:50:27.084Z,61.88
2023-03-20T11:52:34.931Z,60.59
2023-03-20T11:54:36.900Z,60.89
2023-03-20T11:56:38.532Z,60.48
2023-03-20T11:59:03.508Z,61.03
2023-03-20T12:01:08.423Z,60.41
2023-03-20T12:03:44.986Z,60.23
2023-03-20T12:05:46.528Z,59.73
2023-03-20T12:07:52.140Z,59.22
2023-03-20T12:09:58.790Z,60.11
2023-03-20T12:12:10.227Z,60.76
2023-03-20T12:14:19.117Z,59.93
2023-03-20T12:16:25.204Z,60.32
2023-03-20T12:18:34.835Z,59.99
2023-03-20T12:20:36.864Z,59.75
2023-03-20T12:22:49.384Z,59.71
2023-03-20T12:25:15.246Z,59.20
2023-03-20T12:27:40.084Z,60.03
2023-03-20T12:29:50.182Z,60.04
2023-03-20T12:32:08.680Z,59.84
2023-03-20T12:34:16.756Z,60.95
2023-03-20T12:36:27.012Z,60.12
2023-03-20T12:38:31.638Z,60.33
2023-03-20T12:40:43.914Z,60.77
2023-03-20T12:43:04.966Z,60.63
2023-03-20T12:45:11.252Z,59.75
2023-03-20T12:47:24.513Z,59.35
2023-03-20T12:49:51.939Z,59.26
2023-03-20T12:52:12.308Z,59.35
2023-03-20T12:54:38.668Z,60.99
2023-03-20T12:57:04.918Z,59.20
2023-03-20T12:59:17.067Z,59.30
2023-03-20T13:01:41.504Z,59.36
2023-03-20T13:03:55.292Z,59.75
2023-03-20T13:06:08.968Z,59.69
2023-03-20T13:08:19.254Z,59.83
2023-03-20T13:10:32.020Z,60.52
2023-03-20T13:13:05.657Z,59.64
2023-03-20T13:15:25.467Z,59.62
2023-03-20T13:17:57.785Z,60.14
2023-03-20T13:20:21.302Z,59.76
2023-03-20T13:22:30.501Z,59.75
2023-03-20T13:24:48.058Z,60.14
2023-03-20T13:27:11.219Z,61.08
2023-03-20T13:29:34.661Z,60.28
2023-03-20T13:31:52.498Z,61.99
2023-03-20T13:34:03.298Z,61.64
2023-03-20T13:36:31.293Z,62.12
2023-03-20T13:38:37.742Z,61.14
2023-03-20T13:40:44.151Z,61.42
2023-03-20T13:43:00.824Z,60.97
2023-03-20T13:45:41.978Z,60.99
2023-03-20T13:47:46.812Z,61.49
2023-03-20T13:50:08.835Z,61.48
2023-03-20T13:52:23.363Z,61.90
2023-03-20T13:54:35.717Z,62.01
2023-03-20T13:56:55.651Z,61.45
2023-03-20T13:59:06.600Z,61.56
2023-03-20T14:01:47.328Z,61.66
2023-03-20T14:03:49.929Z,61.85
2023-03-20T14:05:51.725Z,61.81
2023-03-20T14:07:58.210Z,62.24
2023-03-20T14:10:22.120Z,62.15
2023-03-20T14:12:27.475Z,62.60
2023-03-20T14:14:40.879Z,62.48
2023-03-20T14:16:42.891Z,61.74
2023-03-20T14:18:45.679Z,62.40
2023-03-20T14:20:57.849Z,61.70
2023-03-20T14:22:59.572Z,62.09
2023-03-20T14:25:08.042Z,61.99
2023-03-20T14:27:18.199Z,62.52
2023-03-20T14:29:30.569Z,63.31
2023-03-20T14:31:37.692Z,62.82
2023-03-20T14:33:44.562Z,63.42
2023-03-20T14:35:50.354Z,63.87
2023-03-20T14:38:10.293Z,63.84
2023-03-20T14:40:19.149Z,64.34
2023-03-20T14:42:40.072Z,64.48
2023-03-20T14:44:47.631Z,65.87
2023-03-20T14:47:27.294Z,65.81
2023-03-20T14:49:48.000Z,66.22
2023-03-20T14:51:53.465Z,66.60
2023-03-20T14:53:57.483Z,66.87
2023-03-20T14:55:59.722Z,66.90
2023-03-20T14:58:25.357Z,68.43
2023-03-20T15:00:30.854Z,68.24
2023-03-20T15:02:36.367Z,68.46
2023-03-20T15:04:40.821Z,69.26
2023-03-20T15:06:47.258Z,70.29
2023-03-20T15:09:07.385Z,70.74
2023-03-20T15:11:11.965Z,71.41
2023-03-20T15:13:15.219Z,71.65
2023-03-20T15:15:31.612Z,72.59
2023-03-20T15:17:43.993Z,71.59
2023-03-20T15:19:45.629Z,71.81
2023-03-20T15:21:48.616Z,71.83
2023-03-20T15:23:50.691Z,71.93
2023-03-20T15:25:52.547Z,72.12
2023-03-20T15:27:55.252Z,71.78
2023-03-20T15:29:57.642Z,72.06
2023-03-20T15:32:15.650Z,71.17
2023-03-20T15:34:27.060Z,70.68
2023-03-20T15:36:30.167Z,71.64
2023-03-20T15:38:34.791Z,72.16
2023-03-20T15:40:50.035Z,72.83
2023-03-20T15:42:54.486Z,73.61
2023-03-20T15:44:56.730Z,73.37
2023-03-20T15:46:58.204Z,74.49
2023-03-20T15:49:00.303Z,74.60
2023-03-20T15:51:05.067Z,74.37
2023-03-20T15:53:11.188Z,73.88
2023-03-20T15:55:17.820Z,72.93
2023-03-20T15:57:25.445Z,73.45
2023-03-20T15:59:30.769Z,74.01
2023-03-20T16:01:32.948Z,74.03
2023-03-20T16:03:38.081Z,74.78
2023-03-20T16:05:44.213Z,74.28
2023-03-20T16:07:45.852Z,74.92
2023-03-20T16:09:47.938Z,74.50
2023-03-20T16:11:59.880Z,72.46
2023-03-20T16:14:02.165Z,72.31
2023-03-20T16:16:05.088Z,72.19
2023-03-20T16:18:07.377Z,71.97
2023-03-20T16:20:14.753Z,72.39
2023-03-20T16:22:27.920Z,73.91
2023-03-20T16:24:35.434Z,72.27
2023-03-20T16:26:40.637Z,71.78
2023-03-20T16:28:45.409Z,71.89
2023-03-20T16:30:46.888Z,71.49
2023-03-20T16:32:55.018Z,72.03
2023-03-20T16:34:58.181Z,71.47
2023-03-20T16:37:02.098Z,72.82
2023-03-20T16:39:19.694Z,71.85
2023-03-20T16:41:38.495Z,73.08
2023-03-20T16:43:40.141Z,72.54
2023-03-20T16:45:45.589Z,72.29
2023-03-20T16:47:48.800Z,71.75
2023-03-20T16:50:11.676Z,72.57
2023-03-20T16:52:15.881Z,72.97
2023-03-20T16:54:21.162Z,74.04
2023-03-20T16:56:28.952Z,74.24
2023-03-20T16:58:33.195Z,74.08
2023-03-20T17:00:50.894Z,74.94
2023-03-20T17:03:01.112Z,74.78
2023-03-20T17:05:06.822Z,75.41
2023-03-20T17:07:13.681Z,76.12
2023-03-20T17:09:24.675Z,76.55
2023-03-20T17:11:32.944Z,77.39
2023-03-20T17:13:34.408Z,77.56
2023-03-20T17:15:35.946Z,78.52
2023-03-20T17:17:37.431Z,78.54
2023-03-20T17:19:38.930Z,78.96
2023-03-20T17:21:41.217Z,79.87
2023-03-20T17:23:42.851Z,80.12
2023-03-20T17:25:44.487Z,80.23
2023-03-20T17:27:46.948Z,81.61
2023-03-20T17:29:51.626Z,82.69
2023-03-20T17:31:53.252Z,82.85
2023-03-20T17:33:54.854Z,83.20
2023-03-20T17:35:57.500Z,83.99
2023-03-20T17:37:59.518Z,84.26
2023-03-20T17:40:01.043Z,83.94
2023-03-20T17:42:03.140Z,84.01
2023-03-20T17:44:04.690Z,84.74
2023-03-20T17:46:06.822Z,85.09
2023-03-20T17:48:18.174Z,85.19
2023-03-20T17:50:25.364Z,85.80
2023-03-20T17:52:28.114Z,85.69
2023-03-20T17:54:29.598Z,86.50
2023-03-20T17:56:32.701Z,86.90
2023-03-20T17:58:34.169Z,86.52
2023-03-20T18:00:36.102Z,86.61
2023-03-20T18:02:38.047Z,86.60
2023-03-20T18:04:39.529Z,87.19
2023-03-20T18:06:41.057Z,87.40
2023-03-20T18:08:42.548Z,87.22
2023-03-20T18:10:44.306Z,87.23
2023-03-20T18:12:45.990Z,87.13
2023-03-20T18:14:47.501Z,87.75
2023-03-20T18:16:49.061Z,88.00
2023-03-20T18:18:51.508Z,87.95
2023-03-20T18:20:54.727Z,88.26
2023-03-20T18:22:56.480Z,88.43
2023-03-20T18:24:57.948Z,88.80
2023-03-20T18:26:59.960Z,88.48
2023-03-20T18:29:01.416Z,88.65
2023-03-20T18:31:02.934Z,89.38
2023-03-20T18:33:05.641Z,89.66
2023-03-20T18:35:07.647Z,89.67
2023-03-20T18:37:13.986Z,89.64
2023-03-20T18:39:21.397Z,89.55
2023-03-20T18:41:23.167Z,90.63
2023-03-20T18:43:24.634Z,90.03
2023-03-20T18:45:27.972Z,90.84
2023-03-20T18:47:29.442Z,90.67
2023-03-20T18:49:31.659Z,90.90
2023-03-20T18:51:33.640Z,91.31
2023-03-20T18:53:35.210Z,91.05
2023-03-20T18:55:38.109Z,91.45
2023-03-20T18:57:43.066Z,91.11
2023-03-20T18:59:44.718Z,91.78
2023-03-20T19:01:46.313Z,91.62
2023-03-20T19:03:48.905Z,92.06
2023-03-20T19:05:55.543Z,92.15
2023-03-20T19:07:58.897Z,92.03
2023-03-20T19:10:00.376Z,91.66
2023-03-20T19:12:01.875Z,92.67
2023-03-20T19:14:03.652Z,93.15
2023-03-20T19:16:10.455Z,92.68
2023-03-20T19:18:17.006Z,93.08
2023-03-20T19:20:24.574Z,92.49
2023-03-20T19:22:29.571Z,92.68
2023-03-20T19:24:31.432Z,92.38
2023-03-20T19:26:35.235Z,92.49
2023-03-20T19:28:40.979Z,92.20
2023-03-20T19:30:42.957Z,93.01
2023-03-20T19:32:44.857Z,93.30
2023-03-20T19:35:35.342Z,93.34
2023-03-20T19:37:11.994Z,93.64
2023-03-20T19:39:15.324Z,94.02
2023-03-20T19:41:19.786Z,94.09
2023-03-20T19:43:23.234Z,93.79
2023-03-20T19:45:28.157Z,94.33
2023-03-20T19:47:29.691Z,94.55
2023-03-20T19:49:33.028Z,94.84
2023-03-20T19:51:34.648Z,95.32
2023-03-20T19:53:36.108Z,95.21
2023-03-20T19:55:38.099Z,95.98
2023-03-20T19:57:39.676Z,96.03
2023-03-20T19:59:43.913Z,96.12
2023-03-20T20:01:45.953Z,96.71
2023-03-20T20:03:49.579Z,96.65
2023-03-20T20:05:52.927Z,97.16
2023-03-20T20:08:22.572Z,97.28
2023-03-20T20:10:20.871Z,97.95
2023-03-20T20:12:22.368Z,98.09
2023-03-20T20:14:24.259Z,98.36
2023-03-20T20:16:25.741Z,99.18
2023-03-20T20:18:28.823Z,99.69
2023-03-20T20:20:34.479Z,99.47
2023-03-20T20:22:36.806Z,99.82
2023-03-20T20:24:38.277Z,100.00
2023-03-20T20:26:49.385Z,99.95
2023-03-20T20:28:54.581Z,100.00
2023-03-20T20:30:57.168Z,100.00
2023-03-20T20:33:03.487Z,100.00
2023-03-20T20:35:40.679Z,100.00
2023-03-20T20:38:19.654Z,100.00
2023-03-20T20:39:51.242Z,100.00
2023-03-20T20:41:52.725Z,100.00
2023-03-20T20:44:15.092Z,100.00
2023-03-20T20:46:15.735Z,100.00
2023-03-20T20:48:18.752Z,100.00
2023-03-20T20:50:31.729Z,100.00
2023-03-20T20:52:36.140Z,100.00
2023-03-20T20:54:37.914Z,100.00
2023-03-20T20:56:39.624Z,100.00
2023-03-20T20:58:41.154Z,100.00
2023-03-20T21:00:51.692Z,100.00
2023-03-20T21:02:54.912Z,100.00
2023-03-20T21:04:56.892Z,100.00
2023-03-20T21:07:09.308Z,100.00
2023-03-20T21:09:12.010Z,100.00
2023-03-20T21:11:14.792Z,100.00
2023-03-20T21:13:16.339Z,100.00
2023-03-20T21:15:18.318Z,100.00
2023-03-20T21:17:20.373Z,100.00
2023-03-20T21:19:21.938Z,100.00
2023-03-20T21:21:23.866Z,100.00
2023-03-20T21:23:26.014Z,100.00
2023-03-20T21:25:47.066Z,100.00
2023-03-20T21:27:49.243Z,100.00
2023-03-20T21:29:50.968Z,100.00
2023-03-20T21:31:52.912Z,100.00
2023-03-20T21:33:55.960Z,100.00
2023-03-20T21:35:57.557Z,100.00
2023-03-20T21:40:20.542Z,100.00
2023-03-20T21:42:22.009Z,100.00
2023-03-20T21:45:01.084Z,100.00
2023-03-20T21:52:31.158Z,100.00
2023-03-20T21:54:47.595Z,100.00
2023-03-20T21:56:50.564Z,100.00
2023-03-20T21:59:14.747Z,100.00
2023-03-20T22:03:34.907Z,100.00
2023-03-20T22:08:48.617Z,100.00
2023-03-20T22:13:28.466Z,100.00
2023-03-20T22:15:39.300Z,100.00
2023-03-20T22:20:33.146Z,100.00
2023-03-20T22:23:21.050Z,100.00
2023-03-20T22:39:34.081Z,100.00
2023-03-20T22:46:05.655Z,100.00
2023-03-20T22:48:13.021Z,100.00
2023-03-20T22:50:14.537Z,100.00
2023-03-20T22:52:29.145Z,100.00
2023-03-20T22:54:33.547Z,100.00
2023-03-20T22:56:35.006Z,100.00
2023-03-20T22:58:36.545Z,100.00
2023-03-20T23:00:38.452Z,100.00
2023-03-20T23:02:40.377Z,100.00
2023-03-20T23:04:41.969Z,100.00
2023-03-20T23:06:43.470Z,100.00
2023-03-20T23:08:52.075Z,100.00
2023-03-20T23:10:56.425Z,100.00
2023-03-20T23:12:58.270Z,100.00
2023-03-20T23:15:00.717Z,100.00
2023-03-20T23:17:02.285Z,100.00
2023-03-20T23:19:03.888Z,100.00
2023-03-20T23:21:05.907Z,100.00
2023-03-20T23:23:07.402Z,100.00
2023-03-20T23:25:18.637Z,100.00
2023-03-20T23:27:28.747Z,100.00
2023-03-20T23:29:30.435Z,100.00
2023-03-20T23:31:32.049Z,100.00
2023-03-20T23:33:33.682Z,100.00
2023-03-20T23:35:35.363Z,100.00
2023-03-20T23:37:37.269Z,100.00
2023-03-20T23:39:38.793Z,100.00
2023-03-20T23:44:03.679Z,100.00
2023-03-20T23:46:07.065Z,100.00
2023-03-20T23:48:08.618Z,100.00
2023-03-20T23:50:14.553Z,100.00
2023-03-20T23:52:18.784Z,100.00
2023-03-20T23:54:20.718Z,100.00
2023-03-20T23:56:22.240Z,100.00
2023-03-20T23:58:26.568Z,100.00
